Mancos, Colorado
Current Conditions -  °F | °C
As of 1:53 AM on Monday 20 Oct 2014 (Local Time) from KCEZ Reporting Station
Clear Clear  
Wind Chill: 38°   Ceiling: Unl
Heat Index: 42°   Visibility: 10mi
Dew Point: 40°   Wind: 6mph
Humidity: 92%   Direction: 70°ENE
Pressure: 30.18"   Gusts: NA
Location:  37.34°N, 108.29°W
Report Text: KCEZ 200753Z AUTO 07005KT 10SM CLR 06/04 A3018 RMK AO2 SLP168 T00560044
Loading
Personal Weather Stations






























Interactive Weather Map
Tropical Storm Tracking
New forecast layout! Learn more

10-Day Weather Forecast

Advertisements
Track Severe Weather on mobile